Time;durP1;ratioP1;P1;durP2;ratioP2;P2;SDS_P1;SDS_P2;PMS_P1;PMS_P2;Temp;Humidity;BMP_temperature;BMP_pressure;BME280_temperature;BME280_humidity;BME280_pressure;Samples;Min_cycle;Max_cycle;Signal;HPM_P1;HPM_P2
2023/07/25 00:00:30;;;;;;;4.55;2.35;;;;;;;;;;5025295;28;20110;-78
2023/07/25 00:02:57;;;;;;;3.78;2.20;;;;;;;;;;5018146;28;20072;-78
2023/07/25 00:05:24;;;;;;;4.55;2.15;;;;;;;;;;5041307;28;20509;-77
2023/07/25 00:07:51;;;;;;;4.45;2.30;;;;;;;;;;5050345;28;20086;-77
2023/07/25 00:10:18;;;;;;;4.35;2.30;;;;;;;;;;5043196;28;20060;-77
2023/07/25 00:12:45;;;;;;;4.57;2.35;;;;;;;;;;5040705;28;20048;-77
2023/07/25 00:15:11;;;;;;;4.32;2.40;;;;;;;;;;5046585;28;20049;-77
2023/07/25 00:17:38;;;;;;;3.70;2.20;;;;;;;;;;5042897;28;20033;-77
2023/07/25 00:20:05;;;;;;;4.32;2.13;;;;;;;;;;5024882;28;20423;-78
2023/07/25 00:22:31;;;;;;;4.32;2.00;;;;;;;;;;5026826;28;20711;-78
2023/07/25 00:24:58;;;;;;;3.78;2.00;;;;;;;;;;5039427;28;20052;-77
2023/07/25 00:27:24;;;;;;;3.58;2.00;;;;;;;;;;5021529;28;20538;-77
2023/07/25 00:29:51;;;;;;;4.72;2.20;;;;;;;;;;5032862;28;20053;-77
2023/07/25 00:32:18;;;;;;;5.55;2.30;;;;;;;;;;5032698;28;20045;-78
2023/07/25 00:34:44;;;;;;;4.43;1.98;;;;;;;;;;5008764;28;20268;-77
2023/07/25 00:37:11;;;;;;;6.82;2.35;;;;;;;;;;5042945;28;20392;-77
2023/07/25 00:39:38;;;;;;;5.85;1.83;;;;;;;;;;5019230;28;20048;-77
2023/07/25 00:42:05;;;;;;;4.60;1.95;;;;;;;;;;5005079;28;20050;-77
2023/07/25 00:44:32;;;;;;;3.78;1.88;;;;;;;;;;5013594;28;20065;-76
2023/07/25 00:46:58;;;;;;;5.57;2.40;;;;;;;;;;5046140;28;20045;-78
2023/07/25 00:49:25;;;;;;;4.68;1.90;;;;;;;;;;5047081;28;20120;-77
2023/07/25 00:51:52;;;;;;;3.72;1.73;;;;;;;;;;5026615;28;20037;-77
2023/07/25 00:54:18;;;;;;;5.90;2.30;;;;;;;;;;5025542;28;20049;-77
2023/07/25 00:56:45;;;;;;;4.95;1.98;;;;;;;;;;5029771;28;20089;-77
2023/07/25 00:59:12;;;;;;;2.83;1.83;;;;;;;;;;5029647;28;20393;-77
2023/07/25 01:01:39;;;;;;;4.63;2.08;;;;;;;;;;5049503;28;20049;-77
2023/07/25 01:04:05;;;;;;;3.50;1.98;;;;;;;;;;5057373;28;20661;-78
2023/07/25 01:06:33;;;;;;;4.03;2.42;;;;;;;;;;5031237;28;20080;-79
2023/07/25 01:09:00;;;;;;;5.78;2.00;;;;;;;;;;5051091;28;20061;-76
2023/07/25 01:11:29;;;;;;;6.90;2.50;;;;;;;;;;5033259;28;20057;-78
2023/07/25 01:13:56;;;;;;;6.13;2.00;;;;;;;;;;5017333;28;20049;-78
2023/07/25 01:16:27;;;;;;;3.33;2.03;;;;;;;;;;4998448;28;20516;-78
2023/07/25 01:18:54;;;;;;;4.38;2.00;;;;;;;;;;5015181;28;20065;-77
2023/07/25 01:21:21;;;;;;;4.22;2.03;;;;;;;;;;5023298;28;20050;-77
2023/07/25 01:23:50;;;;;;;6.03;2.30;;;;;;;;;;5047347;28;20040;-75
2023/07/25 01:26:22;;;;;;;6.80;2.25;;;;;;;;;;5028984;28;20061;-77
2023/07/25 01:28:53;;;;;;;6.82;2.40;;;;;;;;;;5003869;28;20068;-79
2023/07/25 01:31:19;;;;;;;5.25;2.47;;;;;;;;;;5015447;28;20042;-78
2023/07/25 01:33:46;;;;;;;5.15;2.17;;;;;;;;;;5028540;28;20133;-78
2023/07/25 01:36:12;;;;;;;4.25;2.30;;;;;;;;;;5045424;28;20164;-77
2023/07/25 01:38:39;;;;;;;3.92;2.10;;;;;;;;;;5050640;28;20053;-78
2023/07/25 01:41:06;;;;;;;6.68;2.72;;;;;;;;;;5032419;28;20055;-77
2023/07/25 01:43:32;;;;;;;7.68;2.72;;;;;;;;;;5029437;28;20057;-77
2023/07/25 01:46:00;;;;;;;7.47;2.35;;;;;;;;;;5049025;28;20048;-78
2023/07/25 01:48:26;;;;;;;3.92;2.33;;;;;;;;;;5049247;28;20071;-78
2023/07/25 01:50:53;;;;;;;3.38;2.20;;;;;;;;;;5050453;28;20049;-77
2023/07/25 01:53:20;;;;;;;4.25;2.03;;;;;;;;;;5050517;28;20060;-77
2023/07/25 01:55:46;;;;;;;5.47;2.03;;;;;;;;;;5039812;28;20063;-78
2023/07/25 01:58:13;;;;;;;4.13;2.10;;;;;;;;;;5040084;28;20041;-76
2023/07/25 02:00:43;;;;;;;6.43;2.20;;;;;;;;;;5042959;28;20068;-78
2023/07/25 02:03:10;;;;;;;8.60;2.67;;;;;;;;;;5038785;28;20050;-78
2023/07/25 02:05:37;;;;;;;6.97;2.50;;;;;;;;;;5057318;28;20045;-77
2023/07/25 02:08:04;;;;;;;6.28;2.33;;;;;;;;;;5052146;28;20067;-79
2023/07/25 02:10:32;;;;;;;5.18;2.35;;;;;;;;;;5032390;28;20080;-78
2023/07/25 02:12:58;;;;;;;4.10;2.30;;;;;;;;;;5027995;28;20049;-77
2023/07/25 02:15:25;;;;;;;4.30;2.45;;;;;;;;;;5032402;28;20047;-78
2023/07/25 02:17:53;;;;;;;6.18;2.70;;;;;;;;;;5021403;28;20044;-78
2023/07/25 02:20:25;;;;;;;10.88;3.15;;;;;;;;;;5029200;28;20041;-78
2023/07/25 02:22:52;;;;;;;7.93;2.92;;;;;;;;;;5031535;28;20124;-78
2023/07/25 02:25:21;;;;;;;4.07;2.70;;;;;;;;;;5029261;28;20419;-78
2023/07/25 02:27:47;;;;;;;6.10;2.85;;;;;;;;;;5048992;28;20033;-78
2023/07/25 02:30:14;;;;;;;5.55;2.75;;;;;;;;;;5049448;28;20044;-78
2023/07/25 02:32:40;;;;;;;4.93;2.60;;;;;;;;;;5036764;28;20070;-80
2023/07/25 02:35:07;;;;;;;6.75;3.00;;;;;;;;;;5033297;28;20045;-76
2023/07/25 02:37:34;;;;;;;7.28;2.80;;;;;;;;;;5047189;28;20051;-77
2023/07/25 02:40:00;;;;;;;5.88;2.70;;;;;;;;;;5051079;28;20159;-78
2023/07/25 02:42:27;;;;;;;8.57;2.83;;;;;;;;;;5049726;28;20045;-78
2023/07/25 02:44:54;;;;;;;4.78;3.10;;;;;;;;;;5043038;28;20067;-78
2023/07/25 02:47:20;;;;;;;4.78;3.17;;;;;;;;;;5060088;28;20056;-77
2023/07/25 02:49:47;;;;;;;10.80;2.95;;;;;;;;;;5055507;28;20807;-78
2023/07/25 02:52:14;;;;;;;9.63;2.88;;;;;;;;;;5030819;28;20056;-79
2023/07/25 02:54:40;;;;;;;7.90;3.30;;;;;;;;;;5028384;28;20044;-77
2023/07/25 02:57:07;;;;;;;7.90;3.28;;;;;;;;;;5048103;28;20048;-78
2023/07/25 02:59:34;;;;;;;10.82;3.25;;;;;;;;;;5050117;28;20041;-76
2023/07/25 03:02:01;;;;;;;4.50;2.97;;;;;;;;;;5028618;28;20119;-80
2023/07/25 03:04:28;;;;;;;5.00;2.85;;;;;;;;;;5048882;28;20056;-77
2023/07/25 03:06:55;;;;;;;15.50;3.17;;;;;;;;;;5024528;28;20114;-78
2023/07/25 03:09:21;;;;;;;9.20;3.30;;;;;;;;;;5021486;28;20049;-80
2023/07/25 03:11:48;;;;;;;5.75;3.30;;;;;;;;;;4995794;28;20107;-78
2023/07/25 03:14:14;;;;;;;6.43;3.13;;;;;;;;;;5038871;28;20641;-77
2023/07/25 03:16:41;;;;;;;8.05;3.58;;;;;;;;;;5030885;28;20396;-79
2023/07/25 03:19:08;;;;;;;11.32;3.35;;;;;;;;;;5033012;28;20057;-78
2023/07/25 03:21:34;;;;;;;5.78;3.30;;;;;;;;;;5048432;28;20076;-77
2023/07/25 03:24:01;;;;;;;6.50;2.88;;;;;;;;;;5046932;28;20052;-77
2023/07/25 03:26:28;;;;;;;4.57;2.90;;;;;;;;;;5046720;28;20083;-78
2023/07/25 03:28:54;;;;;;;7.28;2.92;;;;;;;;;;5009753;28;20048;-78
2023/07/25 03:31:21;;;;;;;5.00;3.20;;;;;;;;;;5027432;28;20063;-78
2023/07/25 03:33:47;;;;;;;9.50;3.20;;;;;;;;;;5040935;28;20521;-78
2023/07/25 03:36:14;;;;;;;4.35;2.30;;;;;;;;;;5021867;28;20039;-75
2023/07/25 03:38:40;;;;;;;9.25;3.00;;;;;;;;;;5046657;28;20045;-78
2023/07/25 03:41:07;;;;;;;10.85;2.80;;;;;;;;;;5029041;28;20044;-78
2023/07/25 03:43:34;;;;;;;6.47;2.85;;;;;;;;;;5012277;28;20073;-77
2023/07/25 03:46:01;;;;;;;6.95;2.75;;;;;;;;;;5027918;28;20107;-78
2023/07/25 03:48:27;;;;;;;5.72;2.45;;;;;;;;;;5032886;28;20547;-78
2023/07/25 03:50:54;;;;;;;7.40;2.58;;;;;;;;;;5046440;28;20186;-78
2023/07/25 03:53:20;;;;;;;6.93;2.88;;;;;;;;;;5046527;28;20138;-78
2023/07/25 03:55:47;;;;;;;5.80;2.50;;;;;;;;;;5029375;28;20228;-78
2023/07/25 03:58:14;;;;;;;8.05;2.90;;;;;;;;;;5023611;28;20037;-78
2023/07/25 04:00:41;;;;;;;4.65;2.63;;;;;;;;;;5045640;28;20048;-78
2023/07/25 04:03:08;;;;;;;9.90;2.60;;;;;;;;;;5046715;28;20045;-78
2023/07/25 04:05:41;;;;;;;3.85;2.40;;;;;;;;;;5044100;28;20064;-77
2023/07/25 04:08:08;;;;;;;5.88;2.53;;;;;;;;;;5023890;28;20068;-77
2023/07/25 04:10:34;;;;;;;6.13;2.50;;;;;;;;;;5046503;28;20060;-77
2023/07/25 04:13:01;;;;;;;4.95;2.40;;;;;;;;;;5024266;28;20073;-77
2023/07/25 04:15:27;;;;;;;5.65;2.38;;;;;;;;;;5021039;28;20420;-77
2023/07/25 04:17:54;;;;;;;6.07;2.38;;;;;;;;;;5006278;28;20053;-77
2023/07/25 04:20:21;;;;;;;4.05;2.15;;;;;;;;;;5004211;28;20046;-78
2023/07/25 04:22:48;;;;;;;3.85;2.40;;;;;;;;;;5011982;28;20089;-78
2023/07/25 04:25:14;;;;;;;5.68;2.40;;;;;;;;;;5010626;28;20121;-78
2023/07/25 04:27:42;;;;;;;3.45;2.50;;;;;;;;;;5008277;28;20049;-78
2023/07/25 04:30:09;;;;;;;7.03;2.42;;;;;;;;;;5030503;28;20483;-78
2023/07/25 04:32:35;;;;;;;5.05;2.40;;;;;;;;;;5013251;28;20045;-77
2023/07/25 04:35:02;;;;;;;7.47;2.67;;;;;;;;;;5024389;28;20042;-77
2023/07/25 04:37:29;;;;;;;8.55;2.60;;;;;;;;;;5010073;28;20060;-77
2023/07/25 04:39:56;;;;;;;7.35;2.70;;;;;;;;;;5024621;28;20122;-79
2023/07/25 04:42:22;;;;;;;5.85;2.65;;;;;;;;;;5024476;28;20053;-78
2023/07/25 04:44:49;;;;;;;9.68;3.00;;;;;;;;;;5050088;28;20390;-77
2023/07/25 04:47:15;;;;;;;7.07;2.22;;;;;;;;;;5028322;28;20207;-78
2023/07/25 04:49:42;;;;;;;5.38;2.50;;;;;;;;;;5011048;28;20041;-77
2023/07/25 04:52:09;;;;;;;5.90;2.50;;;;;;;;;;5024230;28;20056;-78
2023/07/25 04:54:35;;;;;;;5.47;2.53;;;;;;;;;;5023971;28;20079;-76
2023/07/25 04:57:02;;;;;;;3.95;2.38;;;;;;;;;;5024566;28;20045;-76
2023/07/25 04:59:30;;;;;;;8.40;2.33;;;;;;;;;;5024554;28;20530;-78
2023/07/25 05:01:56;;;;;;;3.97;2.45;;;;;;;;;;5023041;28;20084;-79
2023/07/25 05:04:23;;;;;;;5.47;2.63;;;;;;;;;;5018601;28;20504;-79
2023/07/25 05:06:50;;;;;;;8.73;2.35;;;;;;;;;;5038104;28;20060;-78
2023/07/25 05:09:18;;;;;;;4.47;2.10;;;;;;;;;;5044804;28;20236;-78
2023/07/25 05:11:47;;;;;;;6.35;2.42;;;;;;;;;;5044096;28;20411;-79
2023/07/25 05:14:14;;;;;;;7.05;2.50;;;;;;;;;;5052027;28;20498;-79
2023/07/25 05:16:40;;;;;;;5.68;2.13;;;;;;;;;;5051693;28;20049;-79
2023/07/25 05:19:07;;;;;;;5.70;2.35;;;;;;;;;;5052378;28;20045;-79
2023/07/25 05:21:34;;;;;;;4.78;2.33;;;;;;;;;;5048979;28;20045;-78
2023/07/25 05:24:00;;;;;;;5.28;2.50;;;;;;;;;;5045889;28;20098;-80
2023/07/25 05:26:27;;;;;;;4.55;2.40;;;;;;;;;;5049872;28;20107;-79
2023/07/25 05:28:54;;;;;;;4.85;2.08;;;;;;;;;;5034569;28;20041;-79
2023/07/25 05:31:20;;;;;;;6.43;2.35;;;;;;;;;;5050135;28;20057;-78
2023/07/25 05:33:47;;;;;;;5.93;2.42;;;;;;;;;;5049370;28;20065;-78
2023/07/25 05:36:13;;;;;;;4.82;2.33;;;;;;;;;;5049527;28;20506;-78
2023/07/25 05:38:40;;;;;;;11.57;2.67;;;;;;;;;;5042868;28;20434;-77
2023/07/25 05:41:07;;;;;;;5.97;2.30;;;;;;;;;;5047678;28;20037;-76
2023/07/25 05:43:33;;;;;;;10.05;2.22;;;;;;;;;;5023166;28;20067;-78
2023/07/25 05:46:00;;;;;;;4.97;2.35;;;;;;;;;;5047580;28;20073;-78
2023/07/25 05:48:26;;;;;;;6.68;2.45;;;;;;;;;;5045831;28;20099;-79
2023/07/25 05:50:53;;;;;;;5.85;2.25;;;;;;;;;;5055532;28;20095;-79
2023/07/25 05:53:20;;;;;;;5.00;2.20;;;;;;;;;;5030420;28;20057;-79
2023/07/25 05:55:46;;;;;;;7.45;2.38;;;;;;;;;;5033095;28;20044;-79
2023/07/25 05:58:17;;;;;;;4.30;2.10;;;;;;;;;;5033753;28;20453;-78
2023/07/25 06:00:44;;;;;;;4.28;2.20;;;;;;;;;;5048333;28;20128;-78
2023/07/25 06:03:11;;;;;;;3.45;2.17;;;;;;;;;;5049181;28;20041;-79
2023/07/25 06:05:38;;;;;;;3.78;2.15;;;;;;;;;;5051313;28;20061;-80
2023/07/25 06:08:05;;;;;;;3.53;2.00;;;;;;;;;;5037320;28;20407;-77
2023/07/25 06:10:32;;;;;;;5.30;2.13;;;;;;;;;;5032112;28;20053;-78
2023/07/25 06:12:59;;;;;;;4.05;2.20;;;;;;;;;;5052139;28;20094;-77
2023/07/25 06:15:28;;;;;;;2.95;1.77;;;;;;;;;;5042291;28;20057;-79
2023/07/25 06:17:55;;;;;;;2.97;1.98;;;;;;;;;;5059641;28;20060;-78
2023/07/25 06:20:21;;;;;;;4.05;2.10;;;;;;;;;;5043973;28;20068;-79
2023/07/25 06:22:48;;;;;;;5.88;2.08;;;;;;;;;;5058625;28;20045;-77
2023/07/25 06:25:15;;;;;;;5.15;2.20;;;;;;;;;;5045112;28;20044;-78
2023/07/25 06:27:41;;;;;;;5.20;2.28;;;;;;;;;;5042110;28;20053;-78
2023/07/25 06:30:08;;;;;;;6.32;2.50;;;;;;;;;;5046703;28;20049;-77
2023/07/25 06:32:37;;;;;;;3.70;2.05;;;;;;;;;;5042993;28;20056;-77
2023/07/25 06:35:04;;;;;;;4.78;2.78;;;;;;;;;;5043297;28;20041;-77
2023/07/25 06:37:35;;;;;;;3.90;2.70;;;;;;;;;;5028137;28;20041;-79
2023/07/25 06:40:02;;;;;;;3.88;2.40;;;;;;;;;;5026053;28;20049;-79
2023/07/25 06:42:29;;;;;;;5.40;2.72;;;;;;;;;;5043631;28;20045;-79
2023/07/25 06:44:56;;;;;;;5.28;2.60;;;;;;;;;;5031746;28;20549;-81
2023/07/25 06:47:23;;;;;;;4.80;2.53;;;;;;;;;;5031787;28;20430;-78
2023/07/25 06:49:50;;;;;;;7.70;2.85;;;;;;;;;;5048445;28;20056;-79
2023/07/25 06:52:16;;;;;;;9.25;2.90;;;;;;;;;;5050703;28;20311;-80
2023/07/25 06:54:43;;;;;;;7.53;3.30;;;;;;;;;;5042883;28;20061;-79
2023/07/25 06:57:10;;;;;;;4.78;2.78;;;;;;;;;;5044472;28;20533;-78
2023/07/25 06:59:37;;;;;;;6.47;3.30;;;;;;;;;;5046705;28;20053;-77
2023/07/25 07:02:03;;;;;;;5.30;3.10;;;;;;;;;;5046411;28;20037;-78
2023/07/25 07:04:30;;;;;;;5.95;3.10;;;;;;;;;;5049154;28;20041;-77
2023/07/25 07:06:57;;;;;;;4.45;2.70;;;;;;;;;;5044954;28;20045;-78
2023/07/25 07:09:23;;;;;;;5.82;2.67;;;;;;;;;;5047523;28;20049;-79
2023/07/25 07:11:50;;;;;;;10.35;3.25;;;;;;;;;;5047981;28;20505;-78
2023/07/25 07:14:16;;;;;;;12.68;3.10;;;;;;;;;;5045788;28;20033;-77
2023/07/25 07:16:44;;;;;;;6.25;3.15;;;;;;;;;;5045912;28;20037;-79
2023/07/25 07:19:10;;;;;;;7.25;2.80;;;;;;;;;;5030087;28;20521;-79
2023/07/25 07:21:37;;;;;;;4.65;3.25;;;;;;;;;;5032767;28;20434;-78
2023/07/25 07:24:04;;;;;;;6.13;3.25;;;;;;;;;;5044828;28;20120;-79
2023/07/25 07:26:30;;;;;;;7.65;3.40;;;;;;;;;;5035178;28;20067;-79
2023/07/25 07:28:58;;;;;;;7.05;3.80;;;;;;;;;;5049326;28;20045;-78
2023/07/25 07:31:25;;;;;;;4.97;3.17;;;;;;;;;;5034054;28;20118;-79
2023/07/25 07:33:52;;;;;;;6.80;3.58;;;;;;;;;;5052718;28;20052;-79
2023/07/25 07:36:18;;;;;;;8.68;3.63;;;;;;;;;;5046126;28;20041;-78
2023/07/25 07:38:45;;;;;;;10.65;3.90;;;;;;;;;;5023740;28;20483;-77
2023/07/25 07:41:11;;;;;;;5.75;3.38;;;;;;;;;;5036533;28;20103;-77
2023/07/25 07:43:39;;;;;;;8.27;3.80;;;;;;;;;;5047645;28;20041;-78
2023/07/25 07:46:06;;;;;;;9.30;3.63;;;;;;;;;;5049660;28;20064;-78
2023/07/25 07:48:33;;;;;;;7.40;3.53;;;;;;;;;;5032105;28;20079;-78
2023/07/25 07:51:01;;;;;;;5.82;3.42;;;;;;;;;;5048992;28;20410;-77
2023/07/25 07:53:28;;;;;;;5.43;3.13;;;;;;;;;;5030900;28;20056;-78
2023/07/25 07:55:55;;;;;;;4.60;3.00;;;;;;;;;;5034191;28;20057;-78
2023/07/25 07:58:21;;;;;;;10.93;3.55;;;;;;;;;;5027791;28;20569;-78
2023/07/25 08:00:48;;;;;;;5.40;3.47;;;;;;;;;;5029334;28;20060;-78
2023/07/25 08:03:14;;;;;;;6.70;4.22;;;;;;;;;;5011186;28;20052;-79
2023/07/25 08:05:42;;;;;;;6.82;3.67;;;;;;;;;;5031115;28;20041;-77
2023/07/25 08:08:09;;;;;;;7.80;4.00;;;;;;;;;;5051166;28;20041;-79
2023/07/25 08:10:36;;;;;;;6.72;4.13;;;;;;;;;;5060627;28;20041;-77
2023/07/25 08:13:02;;;;;;;5.50;4.07;;;;;;;;;;5057046;28;20491;-78
2023/07/25 08:15:29;;;;;;;8.60;3.92;;;;;;;;;;5060123;28;20407;-76
2023/07/25 08:17:55;;;;;;;7.72;3.92;;;;;;;;;;5039392;28;20107;-77
2023/07/25 08:20:22;;;;;;;6.03;4.32;;;;;;;;;;5058841;28;20110;-77
2023/07/25 08:22:49;;;;;;;9.98;4.00;;;;;;;;;;5056302;28;20048;-78
2023/07/25 08:25:15;;;;;;;7.07;4.38;;;;;;;;;;5035709;28;20052;-78
2023/07/25 08:27:42;;;;;;;7.20;3.90;;;;;;;;;;5052538;28;20041;-79
2023/07/25 08:30:09;;;;;;;6.32;3.47;;;;;;;;;;4995403;28;20042;-78
2023/07/25 08:32:35;;;;;;;6.25;3.17;;;;;;;;;;5010730;28;20512;-78
2023/07/25 08:35:05;;;;;;;6.45;3.38;;;;;;;;;;5021188;28;20044;-79
2023/07/25 08:37:32;;;;;;;6.60;3.30;;;;;;;;;;5055322;28;20040;-78
2023/07/25 08:39:59;;;;;;;5.80;3.17;;;;;;;;;;5053755;28;20048;-81
2023/07/25 08:42:27;;;;;;;3.22;2.10;;;;;;;;;;5053732;28;20044;-79
2023/07/25 08:44:55;;;;;;;3.88;2.40;;;;;;;;;;5056155;28;20060;-78
2023/07/25 08:47:25;;;;;;;4.10;1.90;;;;;;;;;;5053430;28;20128;-78
2023/07/25 08:49:53;;;;;;;4.78;1.70;;;;;;;;;;5054266;28;20095;-79
2023/07/25 08:52:20;;;;;;;4.22;2.15;;;;;;;;;;5036903;28;20103;-79
2023/07/25 08:54:48;;;;;;;7.40;1.80;;;;;;;;;;5055751;28;20105;-78
2023/07/25 08:57:16;;;;;;;2.75;1.75;;;;;;;;;;5053463;28;20060;-78
2023/07/25 08:59:42;;;;;;;3.45;2.05;;;;;;;;;;5053551;28;20565;-78
2023/07/25 09:02:10;;;;;;;5.03;2.40;;;;;;;;;;5035489;28;20103;-78
2023/07/25 09:04:37;;;;;;;3.58;2.40;;;;;;;;;;5053140;28;20056;-78
2023/07/25 09:07:05;;;;;;;5.07;2.40;;;;;;;;;;5050877;28;20049;-78
2023/07/25 09:09:31;;;;;;;3.78;2.20;;;;;;;;;;5055256;28;20075;-78
2023/07/25 09:11:58;;;;;;;5.18;2.00;;;;;;;;;;5052893;28;20604;-79
2023/07/25 09:14:24;;;;;;;4.25;2.05;;;;;;;;;;5034867;28;20462;-78
2023/07/25 09:16:51;;;;;;;4.47;1.70;;;;;;;;;;5038818;28;20125;-79
2023/07/25 09:19:18;;;;;;;4.43;2.15;;;;;;;;;;5053101;28;20059;-78
2023/07/25 09:21:48;;;;;;;3.83;1.90;;;;;;;;;;5048854;28;20040;-77
2023/07/25 09:24:15;;;;;;;3.90;1.83;;;;;;;;;;5051513;28;20053;-77
2023/07/25 09:26:49;;;;;;;4.22;1.90;;;;;;;;;;5049479;28;20045;-77
2023/07/25 09:29:16;;;;;;;3.55;1.80;;;;;;;;;;5035001;28;20533;-80
2023/07/25 09:31:44;;;;;;;2.50;1.50;;;;;;;;;;5052747;28;20049;-78
2023/07/25 09:34:16;;;;;;;4.00;1.80;;;;;;;;;;5052778;28;20406;-79
2023/07/25 09:36:49;;;;;;;2.55;1.70;;;;;;;;;;5048764;28;20045;-78
2023/07/25 09:39:16;;;;;;;3.33;1.80;;;;;;;;;;5050725;28;20279;-79
2023/07/25 09:41:45;;;;;;;2.75;1.80;;;;;;;;;;5034880;28;20044;-77
2023/07/25 09:44:11;;;;;;;4.22;2.22;;;;;;;;;;5031181;28;20065;-79
2023/07/25 09:46:38;;;;;;;4.00;2.13;;;;;;;;;;5052920;28;20112;-77
2023/07/25 09:49:07;;;;;;;5.35;1.98;;;;;;;;;;5054152;28;20107;-78
2023/07/25 09:51:36;;;;;;;3.08;2.05;;;;;;;;;;5051147;28;20053;-78
2023/07/25 09:54:05;;;;;;;4.88;2.17;;;;;;;;;;5048163;28;20107;-78
2023/07/25 09:56:32;;;;;;;4.45;2.28;;;;;;;;;;5031233;28;20052;-78
2023/07/25 09:58:58;;;;;;;5.68;2.78;;;;;;;;;;5051609;28;20055;-78
2023/07/25 10:01:35;;;;;;;5.03;2.15;;;;;;;;;;5051783;28;20130;-78
2023/07/25 10:04:02;;;;;;;3.65;1.92;;;;;;;;;;5016924;28;20064;-79
2023/07/25 10:06:29;;;;;;;3.58;2.05;;;;;;;;;;5051715;28;20056;-78
2023/07/25 10:08:57;;;;;;;5.45;1.85;;;;;;;;;;5052852;28;20045;-79
2023/07/25 10:11:24;;;;;;;4.65;1.90;;;;;;;;;;5052830;28;20052;-79
2023/07/25 10:13:51;;;;;;;3.75;1.90;;;;;;;;;;5033602;28;20456;-78
2023/07/25 10:16:19;;;;;;;2.88;2.00;;;;;;;;;;5040587;28;20537;-77
2023/07/25 10:18:51;;;;;;;3.17;1.92;;;;;;;;;;5053077;28;20041;-78
2023/07/25 10:21:18;;;;;;;6.03;2.08;;;;;;;;;;5027766;28;20472;-79
2023/07/25 10:23:52;;;;;;;3.42;1.80;;;;;;;;;;5053495;28;20044;-77
2023/07/25 10:26:20;;;;;;;2.20;1.70;;;;;;;;;;5057434;28;20052;-78
2023/07/25 10:28:47;;;;;;;3.97;1.90;;;;;;;;;;5056072;28;20063;-80
2023/07/25 10:31:24;;;;;;;2.65;1.85;;;;;;;;;;5070080;28;20041;-78
2023/07/25 10:33:54;;;;;;;4.75;2.10;;;;;;;;;;5029275;28;20101;-78
2023/07/25 10:36:23;;;;;;;6.75;2.55;;;;;;;;;;5024371;28;20045;-77
2023/07/25 10:38:49;;;;;;;5.28;1.92;;;;;;;;;;5053063;28;20266;-78
2023/07/25 10:41:16;;;;;;;3.40;1.90;;;;;;;;;;5035595;28;20041;-78
2023/07/25 10:43:46;;;;;;;4.93;2.10;;;;;;;;;;5042855;28;20049;-78
2023/07/25 10:46:17;;;;;;;2.00;1.65;;;;;;;;;;5013970;28;20049;-76
2023/07/25 10:48:44;;;;;;;4.10;1.88;;;;;;;;;;5014678;28;20061;-78
2023/07/25 10:51:13;;;;;;;4.15;1.90;;;;;;;;;;5027706;28;20301;-78
2023/07/25 10:53:40;;;;;;;3.53;2.00;;;;;;;;;;5028360;28;20041;-78
2023/07/25 10:56:07;;;;;;;2.72;1.70;;;;;;;;;;5034521;28;20037;-79
2023/07/25 10:58:38;;;;;;;3.28;1.83;;;;;;;;;;5032405;28;20057;-78
2023/07/25 11:01:05;;;;;;;4.75;2.00;;;;;;;;;;5031473;28;20038;-79
2023/07/25 11:03:35;;;;;;;5.30;1.70;;;;;;;;;;5026457;28;20067;-78
2023/07/25 11:06:08;;;;;;;2.90;2.05;;;;;;;;;;5028693;28;20045;-77
2023/07/25 11:08:38;;;;;;;4.93;2.20;;;;;;;;;;5040693;28;20050;-78
2023/07/25 11:11:07;;;;;;;3.97;2.10;;;;;;;;;;5022466;28;20500;-78
2023/07/25 11:13:34;;;;;;;3.30;2.33;;;;;;;;;;5026829;28;20085;-78
2023/07/25 11:16:01;;;;;;;3.90;2.40;;;;;;;;;;5031100;28;20519;-78
2023/07/25 11:18:28;;;;;;;4.55;2.95;;;;;;;;;;5032020;28;20107;-78
2023/07/25 11:20:58;;;;;;;7.72;2.80;;;;;;;;;;5030012;28;20041;-78
2023/07/25 11:23:25;;;;;;;6.80;2.90;;;;;;;;;;5029557;28;20569;-78
2023/07/25 11:25:55;;;;;;;6.00;3.13;;;;;;;;;;5028906;28;20076;-79
2023/07/25 11:28:22;;;;;;;6.18;3.33;;;;;;;;;;5025041;28;20549;-79
2023/07/25 11:30:48;;;;;;;5.63;3.35;;;;;;;;;;5031484;28;20573;-79
2023/07/25 11:33:15;;;;;;;8.13;3.67;;;;;;;;;;5028310;28;20411;-78
2023/07/25 11:35:42;;;;;;;5.03;3.70;;;;;;;;;;5030739;28;20118;-79
2023/07/25 11:38:10;;;;;;;7.20;4.00;;;;;;;;;;5031520;28;20095;-78
2023/07/25 11:40:37;;;;;;;4.75;3.72;;;;;;;;;;5031353;28;20041;-78
2023/07/25 11:43:10;;;;;;;7.80;3.67;;;;;;;;;;5023130;28;20091;-78
2023/07/25 11:45:37;;;;;;;6.95;3.72;;;;;;;;;;5019322;28;20056;-78
2023/07/25 11:48:06;;;;;;;6.07;4.00;;;;;;;;;;5030612;28;20121;-80
2023/07/25 11:50:34;;;;;;;6.95;4.75;;;;;;;;;;5021735;28;20045;-78
2023/07/25 11:53:01;;;;;;;6.32;4.78;;;;;;;;;;5029547;28;20514;-79
2023/07/25 11:55:28;;;;;;;8.00;5.22;;;;;;;;;;5028833;28;20049;-76
2023/07/25 11:57:55;;;;;;;8.43;5.28;;;;;;;;;;5025391;28;20112;-78
2023/07/25 12:00:22;;;;;;;10.07;5.90;;;;;;;;;;5026512;28;20116;-78
2023/07/25 12:02:49;;;;;;;9.80;5.72;;;;;;;;;;5028419;28;20079;-78
2023/07/25 12:05:29;;;;;;;9.18;6.20;;;;;;;;;;5028013;28;20092;-77
2023/07/25 12:08:02;;;;;;;6.35;5.43;;;;;;;;;;5024291;28;20041;-78
2023/07/25 12:10:29;;;;;;;8.20;5.68;;;;;;;;;;5025535;28;20056;-78
2023/07/25 12:12:57;;;;;;;7.93;5.70;;;;;;;;;;5028319;28;20065;-78
2023/07/25 12:15:40;;;;;;;8.32;5.15;;;;;;;;;;5025387;28;20103;-77
2023/07/25 12:18:13;;;;;;;7.15;4.35;;;;;;;;;;5037557;28;20052;-78
2023/07/25 12:20:40;;;;;;;5.72;4.13;;;;;;;;;;5027899;28;20037;-78
2023/07/25 12:23:28;;;;;;;7.18;4.10;;;;;;;;;;5024292;28;20331;-77
2023/07/25 12:25:55;;;;;;;5.82;3.83;;;;;;;;;;5023702;28;20049;-77
2023/07/25 12:28:22;;;;;;;6.35;4.05;;;;;;;;;;5027044;28;20042;-78
2023/07/25 12:30:49;;;;;;;6.43;3.53;;;;;;;;;;5025096;28;20041;-79
2023/07/25 12:33:16;;;;;;;6.57;3.20;;;;;;;;;;5023974;28;20484;-78
2023/07/25 12:35:42;;;;;;;5.70;3.50;;;;;;;;;;5046347;28;20064;-79
2023/07/25 12:38:09;;;;;;;5.70;3.45;;;;;;;;;;5050115;28;20049;-78
2023/07/25 12:40:35;;;;;;;6.28;3.08;;;;;;;;;;5045634;28;20056;-78
2023/07/25 12:43:02;;;;;;;7.20;3.80;;;;;;;;;;5047823;28;20059;-78
2023/07/25 12:45:29;;;;;;;6.22;3.40;;;;;;;;;;5030470;28;20428;-78
2023/07/25 12:47:56;;;;;;;7.63;3.78;;;;;;;;;;5028865;28;20133;-78
2023/07/25 12:50:22;;;;;;;6.75;3.55;;;;;;;;;;5028177;28;20063;-79
2023/07/25 12:52:49;;;;;;;4.97;3.42;;;;;;;;;;5031924;28;20049;-78
2023/07/25 12:55:15;;;;;;;5.28;3.40;;;;;;;;;;5033469;28;20037;-78
2023/07/25 12:57:42;;;;;;;5.63;3.13;;;;;;;;;;5028687;28;20475;-78
2023/07/25 13:00:09;;;;;;;6.43;3.33;;;;;;;;;;5057178;28;20143;-78
2023/07/25 13:02:36;;;;;;;10.43;3.53;;;;;;;;;;5037902;28;20049;-77
2023/07/25 13:05:03;;;;;;;7.35;3.90;;;;;;;;;;5036169;28;20067;-77
2023/07/25 13:07:30;;;;;;;8.15;4.53;;;;;;;;;;5062406;28;20044;-77
2023/07/25 13:09:57;;;;;;;8.82;3.83;;;;;;;;;;5045834;28;20392;-76
2023/07/25 13:12:23;;;;;;;9.35;4.00;;;;;;;;;;5062038;28;20048;-77
2023/07/25 13:14:50;;;;;;;10.68;4.43;;;;;;;;;;5046078;28;20076;-79
2023/07/25 13:17:17;;;;;;;8.20;4.22;;;;;;;;;;5037053;28;20053;-78
2023/07/25 13:19:43;;;;;;;7.47;3.88;;;;;;;;;;5040014;28;20041;-77
2023/07/25 13:22:10;;;;;;;6.53;4.03;;;;;;;;;;5048821;28;20048;-78
2023/07/25 13:24:37;;;;;;;7.03;3.65;;;;;;;;;;5031925;28;20052;-78
2023/07/25 13:27:04;;;;;;;8.30;4.25;;;;;;;;;;5031824;28;20498;-79
2023/07/25 13:29:30;;;;;;;10.15;4.57;;;;;;;;;;5034205;28;20041;-79
2023/07/25 13:31:57;;;;;;;6.85;4.40;;;;;;;;;;5051239;28;20060;-79
2023/07/25 13:34:23;;;;;;;7.68;4.05;;;;;;;;;;5050581;28;20064;-81
2023/07/25 13:36:57;;;;;;;6.95;3.90;;;;;;;;;;5049381;28;20037;-78
2023/07/25 13:39:25;;;;;;;5.38;3.97;;;;;;;;;;5032460;28;20045;-78
2023/07/25 13:41:52;;;;;;;8.07;4.47;;;;;;;;;;5048299;28;20481;-77
2023/07/25 13:44:19;;;;;;;7.70;4.80;;;;;;;;;;5046032;28;20055;-78
2023/07/25 13:46:49;;;;;;;5.88;4.40;;;;;;;;;;5046900;28;20462;-78
2023/07/25 13:49:16;;;;;;;9.68;4.72;;;;;;;;;;5028809;28;20507;-78
2023/07/25 13:51:43;;;;;;;8.65;4.85;;;;;;;;;;5047465;28;20053;-77
2023/07/25 13:54:09;;;;;;;9.38;5.68;;;;;;;;;;5048102;28;20053;-78
2023/07/25 13:56:36;;;;;;;10.15;6.40;;;;;;;;;;5048971;28;20052;-78
2023/07/25 13:59:04;;;;;;;10.93;6.15;;;;;;;;;;5045333;28;20052;-80
2023/07/25 14:01:30;;;;;;;8.32;6.25;;;;;;;;;;5046665;28;20095;-78
2023/07/25 14:03:57;;;;;;;8.18;5.82;;;;;;;;;;5046858;28;20132;-79
2023/07/25 14:06:24;;;;;;;7.85;6.18;;;;;;;;;;5045437;28;20060;-80
2023/07/25 14:08:51;;;;;;;8.23;5.35;;;;;;;;;;5029807;28;20125;-77
2023/07/25 14:11:20;;;;;;;8.15;6.00;;;;;;;;;;5048305;28;20289;-78
2023/07/25 14:13:47;;;;;;;8.95;5.95;;;;;;;;;;5032830;28;20033;-79
2023/07/25 14:16:14;;;;;;;7.40;5.97;;;;;;;;;;5050786;28;20136;-78
2023/07/25 14:18:40;;;;;;;9.48;6.05;;;;;;;;;;5049395;28;20061;-78
2023/07/25 14:21:07;;;;;;;8.65;6.45;;;;;;;;;;5047347;28;20041;-78
2023/07/25 14:23:34;;;;;;;9.95;5.82;;;;;;;;;;5056520;28;20037;-79
2023/07/25 14:26:01;;;;;;;8.45;6.07;;;;;;;;;;5047026;28;20472;-78
2023/07/25 14:28:28;;;;;;;9.07;5.97;;;;;;;;;;5046976;28;20056;-80
2023/07/25 14:30:55;;;;;;;9.57;6.35;;;;;;;;;;5051506;28;20045;-79
2023/07/25 14:33:21;;;;;;;8.32;5.60;;;;;;;;;;5048422;28;20049;-78
2023/07/25 14:35:48;;;;;;;7.30;5.45;;;;;;;;;;5030220;28;20067;-78
2023/07/25 14:38:15;;;;;;;6.53;5.10;;;;;;;;;;5033913;28;20139;-78
2023/07/25 14:40:41;;;;;;;9.63;5.35;;;;;;;;;;5023473;28;20069;-79
2023/07/25 14:43:08;;;;;;;5.90;4.85;;;;;;;;;;5031501;28;20044;-78